Urbancrest, Ohio
Current Conditions -  °F | °C
As of 11:55 AM on Wednesday 22 Oct 2014 (Local Time) from KTZR Reporting Station
Broken Clouds Broken Clouds  
Wind Chill: 43°   Ceiling: 1500
Heat Index: 48°   Visibility: 7mi
Dew Point: 43°   Wind: 13mph
Humidity: 82%   Direction: 360°N
Pressure: 30.27"   Gusts: 17mph
Location:  39.8683°N, 83.1183°W
Report Text: KTZR 221555Z 36011G15KT 7SM BKN015 09/06 A3027
Loading
Personal Weather Stations






























Interactive Weather Map
Tropical Storm Tracking
New forecast layout! Learn more

10-Day Weather Forecast

Advertisements
Track Severe Weather on mobile